createdAt,value
2023-01-25T00:02:22.529Z,18.57
2023-01-25T00:04:50.938Z,17.40
2023-01-25T00:07:19.384Z,19.03
2023-01-25T00:09:47.786Z,19.53
2023-01-25T00:12:16.264Z,19.03
2023-01-25T00:14:44.674Z,17.67
2023-01-25T00:17:13.113Z,17.43
2023-01-25T00:19:41.514Z,18.27
2023-01-25T00:22:09.911Z,16.10
2023-01-25T00:24:38.522Z,18.20
2023-01-25T00:27:06.940Z,18.40
2023-01-25T00:29:35.307Z,18.37
2023-01-25T00:33:17.348Z,19.30
2023-01-25T00:35:58.471Z,18.27
2023-01-25T00:38:35.057Z,18.30
2023-01-25T00:41:03.535Z,17.97
2023-01-25T00:43:31.887Z,18.47
2023-01-25T00:46:03.201Z,17.90
2023-01-25T00:48:31.759Z,18.47
2023-01-25T00:51:03.320Z,19.83
2023-01-25T00:53:31.706Z,19.87
2023-01-25T00:56:00.113Z,19.47
2023-01-25T00:58:28.932Z,18.50
2023-01-25T01:00:58.344Z,17.63
2023-01-25T01:03:26.761Z,18.43
2023-01-25T01:06:35.373Z,18.47
2023-01-25T01:09:04.160Z,16.30
2023-01-25T01:11:32.537Z,17.53
2023-01-25T01:15:14.559Z,17.33
2023-01-25T01:18:56.676Z,18.43
2023-01-25T01:21:25.343Z,18.67
2023-01-25T01:23:54.981Z,19.27
2023-01-25T01:26:23.493Z,18.77
2023-01-25T01:28:52.071Z,18.63
2023-01-25T01:31:24.250Z,18.70
2023-01-25T01:33:54.826Z,19.33
2023-01-25T01:36:29.614Z,19.07
2023-01-25T01:38:59.038Z,17.87
2023-01-25T01:41:27.715Z,17.23
2023-01-25T01:43:56.115Z,19.33
2023-01-25T01:46:40.073Z,16.90
2023-01-25T01:49:19.998Z,19.30
2023-01-25T01:52:02.082Z,19.03
2023-01-25T01:54:37.902Z,17.40
2023-01-25T01:57:32.633Z,17.77
2023-01-25T02:00:11.924Z,18.83
2023-01-25T02:02:46.850Z,18.37
2023-01-25T02:05:40.753Z,18.23
2023-01-25T02:08:12.499Z,18.93
2023-01-25T02:10:42.600Z,18.13
2023-01-25T02:13:11.561Z,16.40
2023-01-25T02:15:48.110Z,17.93
2023-01-25T02:18:16.787Z,16.80
2023-01-25T02:20:52.141Z,17.40
2023-01-25T02:23:50.840Z,16.83
2023-01-25T02:26:20.213Z,17.67
2023-01-25T02:28:58.865Z,17.00
2023-01-25T02:31:27.823Z,17.47
2023-01-25T02:33:56.496Z,16.07
2023-01-25T02:36:34.712Z,17.73
2023-01-25T02:39:11.467Z,17.80
2023-01-25T02:41:42.288Z,17.13
2023-01-25T02:44:22.984Z,17.10
2023-01-25T02:46:51.475Z,17.43
2023-01-25T02:49:20.820Z,17.50
2023-01-25T02:51:55.821Z,17.07
2023-01-25T02:54:25.799Z,17.20
2023-01-25T02:56:54.359Z,17.17
2023-01-25T02:59:23.577Z,16.57
2023-01-25T03:01:52.165Z,16.90
2023-01-25T03:04:20.707Z,17.63
2023-01-25T03:06:49.068Z,16.80
2023-01-25T03:09:17.439Z,17.60
2023-01-25T03:11:45.872Z,17.00
2023-01-25T03:14:14.306Z,16.57
2023-01-25T03:16:42.711Z,18.93
2023-01-25T03:19:11.081Z,18.17
2023-01-25T03:21:41.017Z,18.67
2023-01-25T03:24:11.463Z,17.63
2023-01-25T03:26:54.117Z,16.83
2023-01-25T03:29:22.762Z,17.20
2023-01-25T03:31:51.547Z,17.57
2023-01-25T03:34:20.337Z,18.83
2023-01-25T03:36:49.158Z,16.67
2023-01-25T03:39:17.793Z,18.47
2023-01-25T03:41:46.408Z,17.17
2023-01-25T03:44:15.293Z,17.10
2023-01-25T03:46:44.211Z,17.10
2023-01-25T03:49:13.170Z,16.97
2023-01-25T03:51:41.825Z,16.40
2023-01-25T03:54:10.413Z,16.33
2023-01-25T03:56:39.622Z,17.37
2023-01-25T03:59:08.582Z,15.57
2023-01-25T04:01:37.386Z,18.03
2023-01-25T04:04:06.050Z,15.87
2023-01-25T04:06:34.729Z,16.57
2023-01-25T04:09:03.366Z,17.00
2023-01-25T04:11:32.499Z,15.60
2023-01-25T04:14:01.426Z,17.03
2023-01-25T04:16:31.522Z,17.97
2023-01-25T04:19:00.418Z,18.03
2023-01-25T04:21:29.375Z,18.17
2023-01-25T04:23:58.078Z,17.93
2023-01-25T04:26:27.085Z,20.00
2023-01-25T04:28:55.875Z,18.30
2023-01-25T04:31:24.597Z,17.90
2023-01-25T04:33:53.257Z,17.33
2023-01-25T04:36:21.888Z,17.83
2023-01-25T04:38:50.742Z,17.47
2023-01-25T04:41:19.382Z,18.50
2023-01-25T04:43:47.964Z,17.57
2023-01-25T04:46:16.767Z,19.03
2023-01-25T04:48:45.690Z,17.37
2023-01-25T04:51:15.133Z,17.33
2023-01-25T04:53:43.849Z,17.93
2023-01-25T04:56:12.413Z,17.57
2023-01-25T04:58:41.140Z,18.90
2023-01-25T05:01:10.386Z,15.10
2023-01-25T05:03:39.170Z,16.30
2023-01-25T05:06:08.027Z,15.83
2023-01-25T05:08:36.902Z,17.23
2023-01-25T05:11:05.771Z,16.70
2023-01-25T05:13:35.467Z,17.73
2023-01-25T05:16:09.017Z,16.30
2023-01-25T05:18:47.950Z,17.33
2023-01-25T05:21:33.557Z,16.83
2023-01-25T05:24:02.210Z,16.27
2023-01-25T05:26:48.141Z,17.23
2023-01-25T05:29:17.508Z,16.70
2023-01-25T05:31:46.264Z,17.33
2023-01-25T05:34:15.225Z,18.30
2023-01-25T05:36:43.832Z,18.17
2023-01-25T05:39:12.522Z,17.37
2023-01-25T05:41:41.201Z,17.33
2023-01-25T05:44:09.876Z,16.73
2023-01-25T05:46:38.542Z,17.10
2023-01-25T05:49:07.266Z,16.57
2023-01-25T05:51:36.517Z,17.20
2023-01-25T05:54:06.132Z,16.80
2023-01-25T05:56:35.391Z,17.60
2023-01-25T05:59:04.284Z,18.80
2023-01-25T06:01:32.959Z,18.73
2023-01-25T06:04:01.879Z,17.97
2023-01-25T06:06:30.795Z,18.90
2023-01-25T06:08:59.471Z,16.03
2023-01-25T06:11:28.070Z,14.50
2023-01-25T06:13:56.781Z,14.53
2023-01-25T06:16:25.442Z,15.80
2023-01-25T06:18:54.475Z,14.60
2023-01-25T06:21:23.129Z,17.37
2023-01-25T06:23:51.801Z,16.63
2023-01-25T06:26:20.912Z,16.77
2023-01-25T06:28:50.059Z,16.83
2023-01-25T06:31:20.175Z,16.87
2023-01-25T06:33:53.207Z,18.13
2023-01-25T06:36:23.941Z,17.07
2023-01-25T06:38:53.721Z,15.97
2023-01-25T06:41:22.863Z,18.73
2023-01-25T06:43:56.276Z,18.27
2023-01-25T06:46:25.050Z,17.93
2023-01-25T06:48:53.720Z,17.20
2023-01-25T06:51:22.575Z,16.77
2023-01-25T06:53:51.286Z,15.97
2023-01-25T06:56:23.670Z,16.73
2023-01-25T06:58:52.925Z,14.73
2023-01-25T07:01:27.330Z,14.47
2023-01-25T07:03:59.194Z,16.57
2023-01-25T07:06:34.747Z,15.30
2023-01-25T07:09:14.050Z,16.93
2023-01-25T07:11:42.673Z,15.80
2023-01-25T07:14:11.220Z,17.10
2023-01-25T07:16:39.987Z,17.47
2023-01-25T07:19:13.359Z,16.13
2023-01-25T07:21:42.324Z,16.27
2023-01-25T07:24:18.012Z,14.27
2023-01-25T07:26:46.666Z,14.87
2023-01-25T07:29:17.154Z,12.90
2023-01-25T07:31:45.851Z,12.23
2023-01-25T07:34:15.382Z,11.67
2023-01-25T07:36:44.873Z,13.27
2023-01-25T07:39:18.307Z,13.67
2023-01-25T07:41:47.408Z,12.43
2023-01-25T07:44:16.076Z,13.87
2023-01-25T07:46:44.892Z,13.77
2023-01-25T07:49:13.519Z,14.80
2023-01-25T07:51:42.395Z,13.77
2023-01-25T07:54:13.037Z,14.80
2023-01-25T07:56:41.672Z,17.13
2023-01-25T07:59:12.106Z,15.47
2023-01-25T08:01:41.343Z,14.77
2023-01-25T08:04:10.216Z,15.37
2023-01-25T08:06:40.130Z,16.60
2023-01-25T08:09:14.713Z,14.87
2023-01-25T08:11:43.938Z,14.27
2023-01-25T08:14:12.715Z,13.87
2023-01-25T08:16:41.452Z,13.27
2023-01-25T08:19:12.243Z,12.93
2023-01-25T08:21:41.082Z,12.90
2023-01-25T08:24:10.707Z,14.33
2023-01-25T08:26:39.616Z,13.67
2023-01-25T08:29:11.626Z,16.10
2023-01-25T08:31:45.249Z,13.33
2023-01-25T08:34:15.021Z,14.43
2023-01-25T08:36:43.619Z,13.97
2023-01-25T08:39:14.321Z,14.33
2023-01-25T08:41:43.198Z,14.17
2023-01-25T08:44:12.204Z,15.07
2023-01-25T08:46:41.548Z,13.80
2023-01-25T08:49:10.917Z,14.00
2023-01-25T08:51:39.528Z,13.70
2023-01-25T08:54:11.191Z,13.50
2023-01-25T08:56:43.752Z,12.27
2023-01-25T08:59:15.759Z,12.50
2023-01-25T09:01:44.508Z,13.50
2023-01-25T09:04:13.148Z,13.80
2023-01-25T09:06:41.860Z,13.23
2023-01-25T09:09:10.502Z,13.10
2023-01-25T09:11:40.418Z,13.73
2023-01-25T09:14:09.096Z,14.40
2023-01-25T09:16:37.859Z,13.70
2023-01-25T09:19:06.941Z,13.97
2023-01-25T09:21:37.164Z,14.17
2023-01-25T09:24:08.984Z,12.80
2023-01-25T09:26:45.942Z,16.50
2023-01-25T09:29:18.747Z,14.00
2023-01-25T09:31:47.732Z,14.63
2023-01-25T09:34:17.424Z,15.57
2023-01-25T09:36:46.297Z,14.63
2023-01-25T09:39:15.310Z,14.90
2023-01-25T09:41:51.956Z,16.97
2023-01-25T09:44:23.670Z,15.37
2023-01-25T09:47:00.007Z,16.27
2023-01-25T09:49:31.425Z,15.37
2023-01-25T09:52:46.245Z,14.87
2023-01-25T09:55:18.649Z,17.43
2023-01-25T09:57:51.087Z,15.73
2023-01-25T10:00:37.106Z,15.03
2023-01-25T10:03:32.480Z,16.33
2023-01-25T10:06:03.687Z,14.00
2023-01-25T10:08:46.399Z,13.40
2023-01-25T10:11:33.078Z,15.97
2023-01-25T10:14:02.164Z,14.37
2023-01-25T10:17:01.855Z,14.60
2023-01-25T10:20:28.426Z,13.87
2023-01-25T10:24:06.242Z,13.20
2023-01-25T10:26:38.040Z,12.43
2023-01-25T10:29:30.819Z,13.20
2023-01-25T10:32:32.484Z,13.33
2023-01-25T10:35:34.888Z,13.40
2023-01-25T10:38:14.873Z,12.23
2023-01-25T10:40:52.147Z,13.17
2023-01-25T10:43:23.673Z,13.77
2023-01-25T10:45:53.113Z,12.07
2023-01-25T10:48:31.191Z,13.30
2023-01-25T10:51:02.376Z,12.60
2023-01-25T10:53:42.293Z,13.00
2023-01-25T10:56:26.904Z,12.23
2023-01-25T10:59:20.529Z,13.00
2023-01-25T11:01:49.389Z,13.33
2023-01-25T11:04:38.406Z,12.77
2023-01-25T11:07:07.519Z,13.10
2023-01-25T11:09:40.821Z,12.27
2023-01-25T11:12:21.223Z,13.13
2023-01-25T11:14:51.616Z,11.90
2023-01-25T11:17:32.558Z,12.70
2023-01-25T11:20:22.555Z,11.97
2023-01-25T11:22:57.177Z,11.73
2023-01-25T11:25:35.388Z,11.63
2023-01-25T11:28:18.752Z,13.33
2023-01-25T11:31:02.209Z,12.90
2023-01-25T11:33:32.604Z,12.97
2023-01-25T11:36:21.119Z,12.57
2023-01-25T11:39:33.774Z,13.97
2023-01-25T11:42:02.546Z,12.27
2023-01-25T11:45:24.695Z,11.63
2023-01-25T11:48:23.105Z,13.73
2023-01-25T11:51:51.187Z,12.63
2023-01-25T11:54:47.591Z,13.10
2023-01-25T11:57:50.460Z,13.57
2023-01-25T12:00:32.707Z,11.40
2023-01-25T12:03:58.400Z,12.60
2023-01-25T12:06:30.277Z,12.53
2023-01-25T12:09:01.734Z,13.83
2023-01-25T12:11:36.315Z,13.23
2023-01-25T12:14:11.039Z,12.80
2023-01-25T12:17:14.720Z,13.77
2023-01-25T12:20:09.071Z,13.80
2023-01-25T12:23:16.316Z,13.73
2023-01-25T12:26:09.011Z,13.97
2023-01-25T12:29:18.047Z,13.90
2023-01-25T12:32:04.336Z,14.40
2023-01-25T12:34:42.240Z,13.43
2023-01-25T12:37:20.365Z,12.27
2023-01-25T12:40:22.542Z,13.63
2023-01-25T12:43:01.701Z,12.40
2023-01-25T12:45:36.369Z,13.20
2023-01-25T12:48:22.593Z,13.63
2023-01-25T12:50:58.139Z,13.00
2023-01-25T12:53:26.745Z,13.27
2023-01-25T12:55:56.764Z,12.93
2023-01-25T12:58:51.412Z,13.00
2023-01-25T13:01:28.540Z,13.73
2023-01-25T13:04:43.971Z,13.40
2023-01-25T13:07:31.108Z,13.43
2023-01-25T13:10:01.361Z,13.93
2023-01-25T13:12:30.041Z,15.50
2023-01-25T13:14:59.559Z,13.23
2023-01-25T13:17:38.389Z,13.53
2023-01-25T13:20:41.783Z,13.77
2023-01-25T13:23:43.941Z,13.57
2023-01-25T13:26:24.814Z,12.70
2023-01-25T13:28:56.239Z,13.23
2023-01-25T13:31:53.746Z,13.83
2023-01-25T13:34:37.580Z,12.83
2023-01-25T13:37:26.137Z,14.07
2023-01-25T13:40:24.366Z,12.77
2023-01-25T13:43:23.286Z,13.40
2023-01-25T13:45:53.977Z,13.67
2023-01-25T13:48:37.480Z,13.03
2023-01-25T13:51:14.262Z,13.70
2023-01-25T13:53:43.459Z,14.47
2023-01-25T13:56:31.463Z,14.17
2023-01-25T13:59:00.297Z,12.80
2023-01-25T14:01:32.021Z,13.73
2023-01-25T14:04:05.447Z,14.50
2023-01-25T14:06:42.223Z,14.97
2023-01-25T14:09:29.206Z,15.43
2023-01-25T14:12:03.236Z,14.50
2023-01-25T14:14:36.074Z,14.57
2023-01-25T14:17:17.720Z,15.37
2023-01-25T14:19:57.833Z,14.60
2023-01-25T14:22:27.114Z,14.50
2023-01-25T14:25:13.536Z,16.00
2023-01-25T14:27:54.078Z,14.50
2023-01-25T14:30:30.526Z,14.37
2023-01-25T14:33:20.248Z,14.43
2023-01-25T14:35:56.467Z,13.33
2023-01-25T14:38:37.964Z,12.77
2023-01-25T14:41:30.703Z,12.43
2023-01-25T14:44:05.200Z,13.53
2023-01-25T14:46:37.367Z,14.07
2023-01-25T14:49:14.745Z,14.80
2023-01-25T14:52:26.001Z,13.60
2023-01-25T14:54:58.774Z,13.17
2023-01-25T14:57:39.892Z,13.20
2023-01-25T15:00:34.557Z,13.10
2023-01-25T15:03:07.305Z,11.57
2023-01-25T15:05:38.084Z,12.40
2023-01-25T15:08:09.343Z,14.13
2023-01-25T15:10:40.290Z,12.73
2023-01-25T15:13:15.609Z,12.33
2023-01-25T15:15:54.460Z,13.53
2023-01-25T15:18:42.688Z,14.17
2023-01-25T15:21:22.482Z,13.40
2023-01-25T15:23:51.743Z,13.67
2023-01-25T15:26:28.682Z,14.47
2023-01-25T15:29:20.936Z,14.07
2023-01-25T15:31:51.629Z,14.80
2023-01-25T15:34:32.520Z,13.97
2023-01-25T15:39:54.312Z,12.80
2023-01-25T15:42:23.029Z,13.77
2023-01-25T15:44:51.674Z,15.73
2023-01-25T15:47:20.347Z,14.83
2023-01-25T15:49:49.576Z,14.33
2023-01-25T15:52:18.167Z,14.93
2023-01-25T15:54:55.905Z,13.70
2023-01-25T15:57:34.594Z,13.90
2023-01-25T16:00:03.709Z,14.87
2023-01-25T16:02:32.361Z,15.30
2023-01-25T16:05:01.042Z,14.00
2023-01-25T16:07:31.204Z,14.40
2023-01-25T16:09:59.847Z,14.17
2023-01-25T16:12:28.488Z,14.20
2023-01-25T16:14:57.638Z,15.87
2023-01-25T16:17:27.182Z,15.33
2023-01-25T16:19:55.757Z,15.67
2023-01-25T16:22:24.406Z,15.37
2023-01-25T16:24:53.325Z,16.20
2023-01-25T16:27:25.738Z,14.80
2023-01-25T16:29:56.196Z,15.93
2023-01-25T16:32:24.793Z,15.70
2023-01-25T16:34:53.395Z,15.13
2023-01-25T16:37:22.193Z,14.43
2023-01-25T16:39:52.003Z,13.50
2023-01-25T16:42:22.680Z,13.33
2023-01-25T16:44:51.549Z,13.27
2023-01-25T16:47:20.217Z,14.27
2023-01-25T16:49:48.844Z,14.30
2023-01-25T16:52:17.388Z,14.97
2023-01-25T16:54:46.064Z,13.93
2023-01-25T16:57:20.261Z,14.63
2023-01-25T16:59:49.348Z,12.57
2023-01-25T17:02:18.147Z,13.20
2023-01-25T17:04:46.768Z,13.20
2023-01-25T17:07:15.623Z,14.23
2023-01-25T17:09:44.339Z,15.07
2023-01-25T17:12:14.695Z,14.77
2023-01-25T17:14:43.288Z,13.97
2023-01-25T17:17:11.945Z,16.73
2023-01-25T17:19:40.514Z,15.77
2023-01-25T17:22:09.614Z,14.87
2023-01-25T17:24:38.387Z,15.57
2023-01-25T17:27:07.560Z,14.73
2023-01-25T17:29:36.057Z,13.97
2023-01-25T17:32:04.696Z,14.33
2023-01-25T17:34:33.348Z,14.53
2023-01-25T17:37:01.949Z,14.60
2023-01-25T17:39:30.656Z,14.97
2023-01-25T17:41:59.253Z,14.87
2023-01-25T17:44:28.268Z,15.13
2023-01-25T17:46:56.963Z,14.73
2023-01-25T17:49:26.465Z,15.20
2023-01-25T17:51:55.093Z,14.37
2023-01-25T17:54:23.655Z,14.20
2023-01-25T17:56:54.162Z,14.23
2023-01-25T17:59:22.932Z,14.90
2023-01-25T18:01:51.556Z,14.33
2023-01-25T18:04:20.682Z,12.87
2023-01-25T18:06:49.367Z,13.10
2023-01-25T18:09:17.944Z,11.87
2023-01-25T18:11:48.023Z,12.13
2023-01-25T18:14:17.153Z,11.20
2023-01-25T18:16:46.207Z,12.77
2023-01-25T18:19:15.288Z,12.87
2023-01-25T18:21:43.982Z,14.17
2023-01-25T18:24:34.131Z,14.43
2023-01-25T18:27:24.816Z,12.40
2023-01-25T18:30:35.497Z,13.93
2023-01-25T18:33:05.625Z,14.47
2023-01-25T18:35:35.165Z,15.17
2023-01-25T18:38:03.734Z,14.40
2023-01-25T18:40:32.459Z,14.53
2023-01-25T18:43:01.583Z,14.63
2023-01-25T18:45:30.313Z,14.80
2023-01-25T18:48:00.874Z,13.93
2023-01-25T18:50:31.226Z,13.93
2023-01-25T18:52:59.933Z,14.23
2023-01-25T18:55:28.631Z,12.00
2023-01-25T18:58:04.016Z,11.23
2023-01-25T19:00:34.424Z,10.10
2023-01-25T19:03:03.593Z,12.13
2023-01-25T19:05:32.277Z,11.23
2023-01-25T19:08:00.917Z,11.60
2023-01-25T19:10:29.659Z,13.03
2023-01-25T19:12:58.362Z,12.30
2023-01-25T19:15:27.088Z,12.97
2023-01-25T19:17:55.710Z,11.97
2023-01-25T19:20:24.335Z,13.10
2023-01-25T19:22:55.348Z,12.10
2023-01-25T19:25:24.468Z,12.97
2023-01-25T19:27:53.115Z,12.67
2023-01-25T19:30:21.851Z,12.80
2023-01-25T19:32:50.498Z,12.67
2023-01-25T19:35:19.192Z,15.17
2023-01-25T19:37:47.797Z,13.60
2023-01-25T19:40:17.408Z,14.00
2023-01-25T19:42:45.993Z,13.17
2023-01-25T19:45:14.640Z,13.10
2023-01-25T19:47:43.252Z,14.30
2023-01-25T19:50:12.529Z,14.30
2023-01-25T19:52:41.107Z,14.90
2023-01-25T19:55:10.516Z,14.87
2023-01-25T19:57:39.469Z,14.30
2023-01-25T20:00:08.785Z,14.97
2023-01-25T20:02:37.456Z,14.53
2023-01-25T20:05:06.362Z,15.07
2023-01-25T20:07:34.979Z,13.90
2023-01-25T20:10:03.626Z,14.47
2023-01-25T20:12:32.237Z,14.47
2023-01-25T20:15:00.823Z,15.70
2023-01-25T20:17:29.437Z,15.57
2023-01-25T20:19:58.089Z,15.23
2023-01-25T20:22:26.475Z,15.07
2023-01-25T20:24:55.078Z,15.17
2023-01-25T20:27:23.645Z,16.40
2023-01-25T20:29:53.976Z,15.77
2023-01-25T20:32:32.399Z,14.50
2023-01-25T20:35:03.680Z,14.70
2023-01-25T20:37:32.332Z,17.20
2023-01-25T20:40:00.918Z,17.27
2023-01-25T20:42:29.573Z,16.80
2023-01-25T20:44:58.152Z,16.33
2023-01-25T20:47:26.816Z,16.83
2023-01-25T20:49:55.412Z,16.80
2023-01-25T20:52:24.054Z,16.00
2023-01-25T20:54:53.992Z,16.67
2023-01-25T20:57:22.639Z,16.50
2023-01-25T20:59:51.283Z,15.97
2023-01-25T21:02:19.974Z,15.07
2023-01-25T21:04:48.636Z,16.23
2023-01-25T21:07:17.270Z,16.53
2023-01-25T21:09:45.879Z,16.80
2023-01-25T21:12:14.454Z,17.43
2023-01-25T21:14:43.075Z,18.80
2023-01-25T21:17:12.536Z,16.23
2023-01-25T21:19:41.106Z,17.57
2023-01-25T21:22:09.732Z,17.07
2023-01-25T21:24:38.359Z,18.07
2023-01-25T21:27:08.131Z,18.50
2023-01-25T21:29:36.707Z,17.57
2023-01-25T21:32:05.632Z,16.50
2023-01-25T21:34:34.216Z,16.63
2023-01-25T21:39:31.719Z,16.73
2023-01-25T21:42:00.332Z,17.93
2023-01-25T21:44:46.259Z,18.43
2023-01-25T21:47:29.340Z,18.23
2023-01-25T21:50:16.270Z,18.40
2023-01-25T21:52:45.021Z,18.53
2023-01-25T21:55:13.530Z,17.50
2023-01-25T21:57:47.089Z,17.77
2023-01-25T22:00:17.266Z,19.10
2023-01-25T22:02:45.980Z,18.57
2023-01-25T22:05:14.671Z,17.43
2023-01-25T22:07:43.553Z,18.73
2023-01-25T22:10:12.687Z,18.80
2023-01-25T22:12:41.455Z,17.77
2023-01-25T22:15:10.176Z,18.83
2023-01-25T22:17:39.035Z,18.53
2023-01-25T22:20:08.586Z,19.40
2023-01-25T22:22:37.357Z,18.93
2023-01-25T22:25:06.196Z,19.47
2023-01-25T22:27:53.582Z,18.93
2023-01-25T22:30:22.313Z,18.97
2023-01-25T22:32:50.981Z,19.77
2023-01-25T22:35:19.580Z,20.97
2023-01-25T22:37:48.260Z,19.23
2023-01-25T22:40:16.775Z,18.53
2023-01-25T22:42:45.418Z,17.60
2023-01-25T22:45:14.138Z,17.90
2023-01-25T22:47:44.428Z,17.47
2023-01-25T22:50:13.220Z,18.90
2023-01-25T22:52:42.086Z,18.50
2023-01-25T22:55:10.879Z,19.40
2023-01-25T22:57:39.599Z,18.70
2023-01-25T23:00:10.878Z,18.87
2023-01-25T23:02:39.691Z,19.53
2023-01-25T23:05:08.901Z,18.20
2023-01-25T23:07:37.546Z,19.20
2023-01-25T23:10:06.593Z,19.20
2023-01-25T23:12:35.222Z,18.50
2023-01-25T23:15:07.164Z,18.23
2023-01-25T23:17:53.186Z,18.83
2023-01-25T23:20:21.838Z,17.47
2023-01-25T23:22:52.652Z,18.43
2023-01-25T23:25:21.287Z,17.70
2023-01-25T23:27:51.077Z,18.63
2023-01-25T23:30:19.578Z,19.57
2023-01-25T23:32:49.404Z,19.17
2023-01-25T23:35:20.958Z,18.13
2023-01-25T23:37:50.037Z,18.40
2023-01-25T23:40:18.794Z,16.97
2023-01-25T23:42:47.307Z,18.47
2023-01-25T23:45:16.007Z,18.93
2023-01-25T23:47:44.632Z,17.20
2023-01-25T23:50:13.715Z,16.07
2023-01-25T23:52:42.472Z,17.80
2023-01-25T23:55:11.295Z,17.33
2023-01-25T23:57:39.967Z,16.70
